createdAt,value
2019-02-17T00:04:24.078Z,27.63
2019-02-17T00:06:52.624Z,30.67
2019-02-17T00:09:27.398Z,23.60
2019-02-17T00:11:58.991Z,22.33
2019-02-17T00:14:27.595Z,23.77
2019-02-17T00:16:59.103Z,21.80
2019-02-17T00:19:27.731Z,21.60
2019-02-17T00:21:56.334Z,24.90
2019-02-17T00:24:24.945Z,27.90
2019-02-17T00:26:55.495Z,23.73
2019-02-17T00:29:26.825Z,25.23
2019-02-17T00:31:58.449Z,30.90
2019-02-17T00:34:29.931Z,21.30
2019-02-17T00:37:01.681Z,25.23
2019-02-17T00:39:33.391Z,26.90
2019-02-17T00:42:04.767Z,15.87
2019-02-17T00:44:33.491Z,17.20
2019-02-17T00:47:05.052Z,20.10
2019-02-17T00:49:33.680Z,19.00
2019-02-17T00:52:05.160Z,23.03
2019-02-17T00:54:33.728Z,21.63
2019-02-17T00:57:04.989Z,17.13
2019-02-17T00:59:33.671Z,21.33
2019-02-17T01:02:02.686Z,18.03
2019-02-17T01:04:31.258Z,17.17
2019-02-17T01:07:02.774Z,18.77
2019-02-17T01:09:31.650Z,15.60
2019-02-17T01:12:02.962Z,18.50
2019-02-17T01:14:31.568Z,15.23
2019-02-17T01:17:00.124Z,18.43
2019-02-17T01:19:31.776Z,25.60
2019-02-17T01:22:03.559Z,21.17
2019-02-17T01:24:32.317Z,17.13
2019-02-17T01:27:03.774Z,20.17
2019-02-17T01:29:32.584Z,23.50
2019-02-17T01:32:04.277Z,21.27
2019-02-17T01:34:32.866Z,18.43
2019-02-17T01:37:04.288Z,20.23
2019-02-17T01:39:36.045Z,27.30
2019-02-17T01:42:07.735Z,25.43
2019-02-17T01:44:39.195Z,23.47
2019-02-17T01:47:10.706Z,19.33
2019-02-17T01:49:39.303Z,14.87
2019-02-17T01:52:10.985Z,17.40
2019-02-17T01:54:39.596Z,21.87
2019-02-17T01:57:08.547Z,17.30
2019-02-17T01:59:40.290Z,22.27
2019-02-17T02:02:08.907Z,17.90
2019-02-17T02:04:37.483Z,24.00
2019-02-17T02:07:06.126Z,15.37
2019-02-17T02:09:38.112Z,20.50
2019-02-17T02:12:09.704Z,16.53
2019-02-17T02:14:38.315Z,15.10
2019-02-17T02:17:09.604Z,21.00
2019-02-17T02:19:41.187Z,22.23
2019-02-17T02:22:12.574Z,23.43
2019-02-17T02:24:44.152Z,17.60
2019-02-17T02:27:15.524Z,19.77
2019-02-17T02:29:44.133Z,16.77
2019-02-17T02:32:15.715Z,17.80
2019-02-17T02:34:44.640Z,16.50
2019-02-17T02:37:13.249Z,14.20
2019-02-17T02:39:44.726Z,13.83
2019-02-17T02:42:16.323Z,16.83
2019-02-17T02:44:44.926Z,16.60
2019-02-17T02:47:13.534Z,18.87
2019-02-17T02:49:47.573Z,16.63
2019-02-17T02:52:18.944Z,13.50
2019-02-17T02:54:50.521Z,15.23
2019-02-17T02:57:22.208Z,17.90
2019-02-17T02:59:52.630Z,17.97
2019-02-17T03:02:25.694Z,16.43
2019-02-17T03:04:55.584Z,22.03
2019-02-17T03:07:27.017Z,16.70
2019-02-17T03:09:58.390Z,20.37
2019-02-17T03:12:30.079Z,15.27
2019-02-17T03:14:58.698Z,15.70
2019-02-17T03:17:30.383Z,14.20
2019-02-17T03:19:58.936Z,15.17
2019-02-17T03:22:30.873Z,23.03
2019-02-17T03:24:59.741Z,20.03
2019-02-17T03:27:31.269Z,15.93
2019-02-17T03:30:04.742Z,16.50
2019-02-17T03:32:33.406Z,12.70
2019-02-17T03:35:02.015Z,21.40
2019-02-17T03:37:30.589Z,12.30
2019-02-17T03:40:01.912Z,13.33
2019-02-17T03:42:33.383Z,12.10
2019-02-17T03:45:07.267Z,15.70
2019-02-17T03:47:38.597Z,16.10
2019-02-17T03:50:08.392Z,23.07
2019-02-17T03:52:39.908Z,15.20
2019-02-17T03:55:08.616Z,18.93
2019-02-17T03:57:40.006Z,15.23
2019-02-17T04:00:16.866Z,21.13
2019-02-17T04:02:41.933Z,20.20
2019-02-17T04:05:13.310Z,14.80
2019-02-17T04:07:41.915Z,13.03
2019-02-17T04:10:13.293Z,14.83
2019-02-17T04:12:42.107Z,13.70
2019-02-17T04:15:13.390Z,13.77
2019-02-17T04:17:44.690Z,24.77
2019-02-17T04:20:16.435Z,21.30
2019-02-17T04:22:47.708Z,22.03
2019-02-17T04:25:16.315Z,18.23
2019-02-17T04:27:47.894Z,14.67
2019-02-17T04:30:28.638Z,16.13
2019-02-17T04:32:54.199Z,15.47
2019-02-17T04:35:22.759Z,19.13
2019-02-17T04:37:51.386Z,19.10
2019-02-17T04:40:19.987Z,14.53
2019-02-17T04:42:48.570Z,20.57
2019-02-17T04:45:20.043Z,16.40
2019-02-17T04:47:51.574Z,19.90
2019-02-17T04:50:26.481Z,17.30
2019-02-17T04:52:57.760Z,16.07
2019-02-17T04:55:26.407Z,20.47
2019-02-17T04:57:57.691Z,20.20
2019-02-17T05:00:39.199Z,15.70
2019-02-17T05:03:02.079Z,16.67
2019-02-17T05:05:30.675Z,18.37
2019-02-17T05:08:02.257Z,23.10
2019-02-17T05:10:33.629Z,12.73
2019-02-17T05:13:05.108Z,14.30
2019-02-17T05:15:36.684Z,16.05
2019-02-17T05:18:08.263Z,21.50
2019-02-17T05:20:37.284Z,14.58
2019-02-17T05:23:08.859Z,17.37
2019-02-17T05:25:37.589Z,15.00
2019-02-17T05:28:08.965Z,17.25
2019-02-17T05:30:37.912Z,16.03
2019-02-17T05:33:09.420Z,13.90
2019-02-17T05:35:37.995Z,13.77
2019-02-17T05:38:09.569Z,19.02
2019-02-17T05:40:41.013Z,11.95
2019-02-17T05:43:09.625Z,12.68
2019-02-17T05:45:41.218Z,13.30
2019-02-17T05:48:12.601Z,17.65
2019-02-17T05:50:41.200Z,17.48
2019-02-17T05:53:12.617Z,17.55
2019-02-17T05:55:44.116Z,16.17
2019-02-17T05:58:15.681Z,16.15
2019-02-17T06:00:47.824Z,16.50
2019-02-17T06:03:19.382Z,14.53
2019-02-17T06:05:48.025Z,13.32
2019-02-17T06:08:19.807Z,20.30
2019-02-17T06:10:48.372Z,17.30
2019-02-17T06:13:20.100Z,15.53
2019-02-17T06:15:48.668Z,17.25
2019-02-17T06:18:20.392Z,18.42
2019-02-17T06:20:53.827Z,16.77
2019-02-17T06:23:25.611Z,19.07
2019-02-17T06:25:55.882Z,18.30
2019-02-17T06:28:30.623Z,18.07
2019-02-17T06:31:02.135Z,14.83
2019-02-17T06:33:33.644Z,15.72
2019-02-17T06:36:02.297Z,16.85
2019-02-17T06:38:33.872Z,19.12
2019-02-17T06:41:05.856Z,18.23
2019-02-17T06:43:37.396Z,18.10
2019-02-17T06:46:10.344Z,17.20
2019-02-17T06:48:39.060Z,16.50
2019-02-17T06:51:07.650Z,17.17
2019-02-17T06:53:39.229Z,17.83
2019-02-17T06:56:24.350Z,16.50
2019-02-17T06:58:55.642Z,20.43
2019-02-17T07:01:27.377Z,21.70
2019-02-17T07:03:56.414Z,20.17
2019-02-17T07:06:26.624Z,19.60
2019-02-17T07:08:55.186Z,19.17
2019-02-17T07:11:23.919Z,17.37
2019-02-17T07:13:55.412Z,15.97
2019-02-17T07:16:25.572Z,17.85
2019-02-17T07:18:56.880Z,25.08
2019-02-17T07:21:25.885Z,16.50
2019-02-17T07:23:57.395Z,16.73
2019-02-17T07:26:26.080Z,20.40
2019-02-17T07:28:54.653Z,17.43
2019-02-17T07:31:34.398Z,17.62
2019-02-17T07:33:55.267Z,18.23
2019-02-17T07:36:26.877Z,18.80
2019-02-17T07:38:55.527Z,21.77
2019-02-17T07:41:26.110Z,16.80
2019-02-17T07:43:57.670Z,20.23
2019-02-17T07:46:26.328Z,14.43
2019-02-17T07:48:57.996Z,17.77
2019-02-17T07:51:26.982Z,15.13
2019-02-17T07:53:58.258Z,18.60
2019-02-17T07:56:29.996Z,17.50
2019-02-17T07:58:58.570Z,17.50
2019-02-17T08:01:27.222Z,17.80
2019-02-17T08:03:58.946Z,14.03
2019-02-17T08:06:28.723Z,19.17
2019-02-17T08:09:00.271Z,17.70
2019-02-17T08:11:28.860Z,16.57
2019-02-17T08:13:57.409Z,17.97
2019-02-17T08:16:29.066Z,17.03
2019-02-17T08:18:57.687Z,19.90
2019-02-17T08:21:26.266Z,18.57
2019-02-17T08:23:58.001Z,18.03
2019-02-17T08:26:26.636Z,15.20
2019-02-17T08:28:58.215Z,19.10
2019-02-17T08:31:27.077Z,21.47
2019-02-17T08:33:58.629Z,20.53
2019-02-17T08:36:27.215Z,20.03
2019-02-17T08:38:55.805Z,17.80
2019-02-17T08:41:30.184Z,17.80
2019-02-17T08:44:01.674Z,13.30
2019-02-17T08:46:30.267Z,19.23
2019-02-17T08:49:01.799Z,20.60
2019-02-17T08:51:33.153Z,21.10
2019-02-17T08:54:02.035Z,16.70
2019-02-17T08:56:30.618Z,16.53
2019-02-17T08:58:59.496Z,14.63
2019-02-17T09:01:28.072Z,15.90
2019-02-17T09:03:56.626Z,14.50
2019-02-17T09:06:28.139Z,16.90
2019-02-17T09:08:57.424Z,15.13
2019-02-17T09:11:26.349Z,24.50
2019-02-17T09:13:57.930Z,24.73
2019-02-17T09:16:26.511Z,18.30
2019-02-17T09:18:58.064Z,16.40
2019-02-17T09:21:29.560Z,14.80
2019-02-17T09:23:58.132Z,15.13
2019-02-17T09:26:29.863Z,19.93
2019-02-17T09:29:01.148Z,19.03
2019-02-17T09:31:29.727Z,15.07
2019-02-17T09:34:01.385Z,24.40
2019-02-17T09:36:29.979Z,16.83
2019-02-17T09:39:01.557Z,18.83
2019-02-17T09:41:33.218Z,17.97
2019-02-17T09:44:05.232Z,19.17
2019-02-17T09:46:36.892Z,15.93
2019-02-17T09:49:08.721Z,19.57
2019-02-17T09:51:37.733Z,17.93
2019-02-17T09:54:06.292Z,13.13
2019-02-17T09:56:37.557Z,17.63
2019-02-17T09:59:08.792Z,17.40
2019-02-17T10:01:42.633Z,16.80
2019-02-17T10:04:10.986Z,15.70
2019-02-17T10:06:39.654Z,17.03
2019-02-17T10:09:08.638Z,18.40
2019-02-17T10:11:37.223Z,16.00
2019-02-17T10:14:05.779Z,20.77
2019-02-17T10:16:34.348Z,19.40
2019-02-17T10:19:02.993Z,19.53
2019-02-17T10:21:31.620Z,17.27
2019-02-17T10:24:03.306Z,15.50
2019-02-17T10:26:31.921Z,14.57
2019-02-17T10:29:00.473Z,16.43
2019-02-17T10:31:31.745Z,16.73
2019-02-17T10:34:02.991Z,19.67
2019-02-17T10:36:34.279Z,19.13
2019-02-17T10:39:07.174Z,22.07
2019-02-17T10:41:38.688Z,16.47
2019-02-17T10:44:08.878Z,18.60
2019-02-17T10:46:40.415Z,20.83
2019-02-17T10:49:11.999Z,18.60
2019-02-17T10:51:43.340Z,18.33
2019-02-17T10:54:15.586Z,17.90
2019-02-17T10:56:44.142Z,18.80
2019-02-17T10:59:15.394Z,17.10
2019-02-17T11:01:47.116Z,22.00
2019-02-17T11:04:18.622Z,18.77
2019-02-17T11:06:48.228Z,16.10
2019-02-17T11:09:20.304Z,21.23
2019-02-17T11:11:48.937Z,17.93
2019-02-17T11:14:20.459Z,18.37
2019-02-17T11:16:49.360Z,19.83
2019-02-17T11:19:17.944Z,21.70
2019-02-17T11:21:46.572Z,21.23
2019-02-17T11:24:18.867Z,20.07
2019-02-17T11:26:50.506Z,17.93
2019-02-17T11:29:19.105Z,25.43
2019-02-17T11:31:50.422Z,21.53
2019-02-17T11:34:23.200Z,18.10
2019-02-17T11:36:53.696Z,19.33
2019-02-17T11:39:23.331Z,21.03
2019-02-17T11:41:54.783Z,25.27
2019-02-17T11:44:24.884Z,21.40
2019-02-17T11:46:56.286Z,23.53
2019-02-17T11:49:28.051Z,20.70
2019-02-17T11:51:56.606Z,19.83
2019-02-17T11:54:28.116Z,22.17
2019-02-17T11:56:56.675Z,21.70
2019-02-17T11:59:28.212Z,20.87
2019-02-17T12:01:59.838Z,21.83
2019-02-17T12:04:31.632Z,25.23
2019-02-17T12:07:02.865Z,21.30
2019-02-17T12:09:31.910Z,22.70
2019-02-17T12:12:00.473Z,18.40
2019-02-17T12:14:31.669Z,22.33
2019-02-17T12:17:03.228Z,26.93
2019-02-17T12:19:34.875Z,20.00
2019-02-17T12:22:07.785Z,23.03
2019-02-17T12:24:40.656Z,20.90
2019-02-17T12:27:15.029Z,20.83
2019-02-17T12:29:45.255Z,21.80
2019-02-17T12:32:13.838Z,19.10
2019-02-17T12:34:45.918Z,25.80
2019-02-17T12:37:17.143Z,26.43
2019-02-17T12:39:48.463Z,20.20
2019-02-17T12:42:17.028Z,24.73
2019-02-17T12:44:48.610Z,20.77
2019-02-17T12:47:17.184Z,19.80
2019-02-17T12:49:48.881Z,24.80
2019-02-17T12:52:17.430Z,19.80
2019-02-17T12:54:46.069Z,20.43
2019-02-17T12:57:17.579Z,18.13
2019-02-17T12:59:46.477Z,18.97
2019-02-17T13:02:17.716Z,17.43
2019-02-17T13:04:49.009Z,20.77
2019-02-17T13:07:20.717Z,15.33
2019-02-17T13:09:53.179Z,16.37
2019-02-17T13:12:24.763Z,17.97
2019-02-17T13:14:56.210Z,18.57
2019-02-17T13:17:24.777Z,18.30
2019-02-17T13:19:54.955Z,16.30
2019-02-17T13:22:26.332Z,15.73
2019-02-17T13:24:57.622Z,18.30
2019-02-17T13:27:29.583Z,13.77
2019-02-17T13:30:00.997Z,16.40
2019-02-17T13:32:29.549Z,16.93
2019-02-17T13:35:01.954Z,20.80
2019-02-17T13:37:33.216Z,12.70
2019-02-17T13:40:06.664Z,17.20
2019-02-17T13:42:37.947Z,16.80
2019-02-17T13:45:12.170Z,17.93
2019-02-17T13:47:40.731Z,17.00
2019-02-17T13:50:17.304Z,16.33
2019-02-17T13:52:46.077Z,13.77
2019-02-17T13:55:14.945Z,20.00
2019-02-17T13:57:43.509Z,18.83
2019-02-17T14:00:17.756Z,18.30
2019-02-17T14:02:47.009Z,16.70
2019-02-17T14:05:18.407Z,17.90
2019-02-17T14:07:46.960Z,17.90
2019-02-17T14:10:15.606Z,20.33
2019-02-17T14:12:44.171Z,15.57
2019-02-17T14:15:18.184Z,15.20
2019-02-17T14:17:46.997Z,15.07
2019-02-17T14:20:18.560Z,16.37
2019-02-17T14:22:50.014Z,22.60
2019-02-17T14:25:18.596Z,14.93
2019-02-17T14:27:47.155Z,13.07
2019-02-17T14:30:19.766Z,14.93
2019-02-17T14:32:52.736Z,13.07
2019-02-17T14:35:21.362Z,11.63
2019-02-17T14:37:52.933Z,13.60
2019-02-17T14:40:23.419Z,13.63
2019-02-17T14:42:55.458Z,18.43
2019-02-17T14:45:25.667Z,12.13
2019-02-17T14:47:57.012Z,15.10
2019-02-17T14:50:28.593Z,12.80
2019-02-17T14:52:57.152Z,13.90
2019-02-17T14:55:25.741Z,14.37
2019-02-17T14:58:04.944Z,15.10
2019-02-17T15:00:27.692Z,14.30
2019-02-17T15:02:59.215Z,15.10
2019-02-17T15:05:27.876Z,12.60
2019-02-17T15:07:56.627Z,12.87
2019-02-17T15:10:25.552Z,18.17
2019-02-17T15:12:57.047Z,16.27
2019-02-17T15:15:25.605Z,14.90
2019-02-17T15:17:57.160Z,14.13
2019-02-17T15:20:25.886Z,15.70
2019-02-17T15:22:54.584Z,13.73
2019-02-17T15:25:23.301Z,18.27
2019-02-17T15:27:54.962Z,13.23
2019-02-17T15:30:26.698Z,16.57
2019-02-17T15:33:03.901Z,13.30
2019-02-17T15:35:28.453Z,13.17
2019-02-17T15:37:59.723Z,12.67
2019-02-17T15:40:28.287Z,19.70
2019-02-17T15:42:56.946Z,14.47
2019-02-17T15:45:25.571Z,16.20
2019-02-17T15:47:54.602Z,17.67
2019-02-17T15:50:23.481Z,17.20
2019-02-17T15:52:52.675Z,18.17
2019-02-17T15:55:21.634Z,21.20
2019-02-17T15:57:53.729Z,22.47
2019-02-17T16:00:23.967Z,20.17
2019-02-17T16:02:55.327Z,23.77
2019-02-17T16:05:24.283Z,24.57
2019-02-17T16:07:55.880Z,18.07
2019-02-17T16:10:24.904Z,20.53
2019-02-17T16:12:56.208Z,22.20
2019-02-17T16:15:28.487Z,21.60
2019-02-17T16:17:58.711Z,19.30
2019-02-17T16:20:27.278Z,21.33
2019-02-17T16:22:58.531Z,18.80
2019-02-17T16:25:27.099Z,22.43
2019-02-17T16:27:58.611Z,22.70
2019-02-17T16:30:27.342Z,17.83
2019-02-17T16:32:55.933Z,22.37
2019-02-17T16:35:24.585Z,20.37
2019-02-17T16:37:53.208Z,24.70
2019-02-17T16:40:24.715Z,24.30
2019-02-17T16:42:55.826Z,23.83
2019-02-17T16:45:24.987Z,29.23
2019-02-17T16:47:54.700Z,25.47
2019-02-17T16:50:31.534Z,31.40
2019-02-17T16:53:02.939Z,33.60
2019-02-17T16:55:31.497Z,34.20
2019-02-17T16:58:00.084Z,32.17
2019-02-17T17:00:31.287Z,34.80
2019-02-17T17:03:02.573Z,33.20
2019-02-17T17:05:34.765Z,32.80
2019-02-17T17:08:03.400Z,29.80
2019-02-17T17:10:33.000Z,35.00
2019-02-17T17:13:01.563Z,25.77
2019-02-17T17:15:30.127Z,25.23
2019-02-17T17:17:58.704Z,24.17
2019-02-17T17:20:30.297Z,18.73
2019-02-17T17:23:02.173Z,17.93
2019-02-17T17:25:30.801Z,22.07
2019-02-17T17:27:59.391Z,19.73
2019-02-17T17:30:27.957Z,14.90
2019-02-17T17:32:59.513Z,20.97
2019-02-17T17:35:28.480Z,20.67
2019-02-17T17:37:57.071Z,20.13
2019-02-17T17:40:25.635Z,15.53
2019-02-17T17:42:56.895Z,18.60
2019-02-17T17:45:25.464Z,21.00
2019-02-17T17:47:56.979Z,18.07
2019-02-17T17:50:25.538Z,20.13
2019-02-17T17:52:57.603Z,20.23
2019-02-17T17:55:28.371Z,18.07
2019-02-17T17:57:59.385Z,20.37
2019-02-17T18:00:29.646Z,24.60
2019-02-17T18:03:01.245Z,19.80
2019-02-17T18:05:29.881Z,21.70
2019-02-17T18:08:01.378Z,28.30
2019-02-17T18:10:30.270Z,21.73
2019-02-17T18:12:58.844Z,23.17
2019-02-17T18:15:27.788Z,20.60
2019-02-17T18:17:56.353Z,21.10
2019-02-17T18:20:27.625Z,26.07
2019-02-17T18:22:59.234Z,28.03
2019-02-17T18:25:28.343Z,27.83
2019-02-17T18:27:56.908Z,26.43
2019-02-17T18:30:25.493Z,34.83
2019-02-17T18:32:58.438Z,30.97
2019-02-17T18:35:27.009Z,31.27
2019-02-17T18:37:55.946Z,36.80
2019-02-17T18:40:24.567Z,36.63
2019-02-17T18:42:56.308Z,35.53
2019-02-17T18:45:24.968Z,42.30
2019-02-17T18:47:56.541Z,41.13
2019-02-17T18:50:28.518Z,40.07
2019-02-17T18:52:59.764Z,45.43
2019-02-17T18:55:28.353Z,30.17
2019-02-17T18:57:59.585Z,36.50
2019-02-17T19:00:28.549Z,27.93
2019-02-17T19:02:57.124Z,28.60
2019-02-17T19:05:31.920Z,29.27
2019-02-17T19:07:59.041Z,31.63
2019-02-17T19:10:28.532Z,28.40
2019-02-17T19:13:00.038Z,33.20
2019-02-17T19:15:28.627Z,22.23
2019-02-17T19:17:57.274Z,30.73
2019-02-17T19:20:28.841Z,28.83
2019-02-17T19:23:00.744Z,21.33
2019-02-17T19:25:29.769Z,25.40
2019-02-17T19:28:03.719Z,30.83
2019-02-17T19:30:32.497Z,27.93
2019-02-17T19:33:04.533Z,26.37
2019-02-17T19:35:41.485Z,23.90
2019-02-17T19:38:09.297Z,22.27
2019-02-17T19:40:42.372Z,25.93
2019-02-17T19:43:13.641Z,28.50
2019-02-17T19:45:45.453Z,31.57
2019-02-17T19:48:16.676Z,27.93
2019-02-17T19:50:48.047Z,28.63
2019-02-17T19:53:19.612Z,26.63
2019-02-17T19:55:53.194Z,23.07
2019-02-17T19:58:27.438Z,27.10
2019-02-17T20:00:56.181Z,22.80
2019-02-17T20:03:47.554Z,24.77
2019-02-17T20:06:20.650Z,29.93
2019-02-17T20:08:54.748Z,28.37
2019-02-17T20:11:24.846Z,26.27
2019-02-17T20:13:56.127Z,26.10
2019-02-17T20:16:27.962Z,28.03
2019-02-17T20:18:56.523Z,29.73
2019-02-17T20:21:27.776Z,33.00
2019-02-17T20:23:56.340Z,25.23
2019-02-17T20:26:25.386Z,26.60
2019-02-17T20:28:57.278Z,31.20
2019-02-17T20:31:30.285Z,33.13
2019-02-17T20:33:58.845Z,29.93
2019-02-17T20:36:30.656Z,25.67
2019-02-17T20:39:01.927Z,38.37
2019-02-17T20:41:33.846Z,31.40
2019-02-17T20:44:02.407Z,24.30
2019-02-17T20:46:33.960Z,26.80
2019-02-17T20:49:02.523Z,24.87
2019-02-17T20:51:31.110Z,31.10
2019-02-17T20:53:59.953Z,27.00
2019-02-17T20:56:31.699Z,25.33
2019-02-17T20:59:00.258Z,26.23
2019-02-17T21:01:31.820Z,29.30
2019-02-17T21:04:03.377Z,26.80
2019-02-17T21:06:32.302Z,33.40
2019-02-17T21:09:04.594Z,26.57
2019-02-17T21:11:33.259Z,29.23
2019-02-17T21:14:04.599Z,26.63
2019-02-17T21:16:36.319Z,33.27
2019-02-17T21:19:07.812Z,31.53
2019-02-17T21:21:39.142Z,32.93
2019-02-17T21:24:10.517Z,24.77
2019-02-17T21:26:41.802Z,26.70
2019-02-17T21:29:13.072Z,22.73
2019-02-17T21:31:41.711Z,28.00
2019-02-17T21:34:13.919Z,31.00
2019-02-17T21:36:43.754Z,31.17
2019-02-17T21:39:12.555Z,27.77
2019-02-17T21:41:41.536Z,31.37
2019-02-17T21:44:10.090Z,25.50
2019-02-17T21:46:41.402Z,23.47
2019-02-17T21:49:10.371Z,26.70
2019-02-17T21:51:41.972Z,33.60
2019-02-17T21:54:14.058Z,29.27
2019-02-17T21:56:45.410Z,29.77
2019-02-17T21:59:13.985Z,29.23
2019-02-17T22:01:45.292Z,36.73
2019-02-17T22:04:17.589Z,37.17
2019-02-17T22:06:49.068Z,32.53
2019-02-17T22:09:20.973Z,34.10
2019-02-17T22:11:49.607Z,27.80
2019-02-17T22:14:23.075Z,31.60
2019-02-17T22:16:54.086Z,33.23
2019-02-17T22:19:25.346Z,32.50
2019-02-17T22:21:57.186Z,33.27
2019-02-17T22:24:25.814Z,39.33
2019-02-17T22:27:00.193Z,32.40
2019-02-17T22:29:31.570Z,27.80
2019-02-17T22:32:02.873Z,36.73
2019-02-17T22:34:31.498Z,29.47
2019-02-17T22:37:02.825Z,28.53
2019-02-17T22:39:31.842Z,37.27
2019-02-17T22:42:03.230Z,30.13
2019-02-17T22:44:31.853Z,32.90
2019-02-17T22:47:03.503Z,26.13
2019-02-17T22:49:34.943Z,31.23
2019-02-17T22:52:06.424Z,33.57
2019-02-17T22:54:39.464Z,28.17
2019-02-17T22:57:10.088Z,31.43
2019-02-17T22:59:42.160Z,45.23
2019-02-17T23:02:14.071Z,33.77
2019-02-17T23:04:42.704Z,29.90
2019-02-17T23:07:11.259Z,34.43
2019-02-17T23:09:39.955Z,30.17
2019-02-17T23:12:09.086Z,32.93
2019-02-17T23:14:37.710Z,27.93
2019-02-17T23:17:09.802Z,27.00
2019-02-17T23:19:41.417Z,35.07
2019-02-17T23:22:12.787Z,32.17
2019-02-17T23:24:41.511Z,37.80
2019-02-17T23:27:13.082Z,56.57
2019-02-17T23:29:44.463Z,36.60
2019-02-17T23:32:13.078Z,35.30
2019-02-17T23:34:44.691Z,34.87
2019-02-17T23:37:16.200Z,32.20
2019-02-17T23:39:44.869Z,38.47
2019-02-17T23:42:13.570Z,31.13
2019-02-17T23:44:42.615Z,28.70
2019-02-17T23:47:13.991Z,27.03
2019-02-17T23:49:43.849Z,27.27
2019-02-17T23:52:15.396Z,29.60
2019-02-17T23:54:46.858Z,36.93
2019-02-17T23:57:18.555Z,40.17
2019-02-17T23:59:50.037Z,36.07
